Meteo Giornale » Osservazioni meteo Austria » Vienna-Schwechat

ore: 08:50 - Osservazioni Meteo Vienna-Schwechat
Lat. 48° 7' N Lon. 16° 34' E Alt. 183 metri s.l.m.

sereno Europe/Vienna

24 °C

Sereno

Temp. 24 Ore

16 °C

29 °C

Ovest/Nord-Ovest

24 Km/h

Dew point 16 °C

Umidità 60 %

Visibilità  10 Km

Il sole sorge alle ore 04:57

Il sole tramonta alle ore 20:58

Data e Ora Cielo e Fenomeni T °C DP °C Um. % Pres. hPa Vis. km Vento km/h
Oggi h: 08:50 sereno Sereno 24 16 60 1012 10 O/NO 24
Oggi h: 08:20 sereno Sereno 22 16 68 1012 10 O/NO 20.3
Oggi h: 07:50 sereno Sereno 22 17 73 1011 10 N/NO 9.3
Oggi h: 07:20 sereno Sereno 21 16 73 1011 10 O 13
Oggi h: 06:50 sereno Sereno 20 15 72 1011 10 O 16.7
Oggi h: 06:20 sereno Sereno 19 16 82 1011 10 O 11.1
Oggi h: 05:50 sereno Sereno 17 15 88 1011 10 N 3.7
Oggi h: 05:20 sereno Sereno 16 15 93 1010 10 N 5.5
Oggi h: 04:50 sereno Sereno 17 15 88 1010 10 N 5.5
Oggi h: 04:20 sereno Sereno 17 15 88 1010 10 N 5.5
Oggi h: 03:50 sereno Sereno 17 16 93 1010 10 N 3.7
Oggi h: 03:20 sereno Sereno 18 16 88 1010 10 SO 11.1
Oggi h: 02:50 sereno Sereno 18 16 88 1010 10 N 3.7
Oggi h: 02:20 sereno Sereno 18 16 88 1010 10 SO 13
Oggi h: 01:50 sereno Sereno 18 17 93 1010 10 S/SO 13
Oggi h: 01:20 sereno Sereno 18 17 93 1010 10 S/SE 16.7
Oggi h: 00:50 poco_nuvoloso Poco Nuvoloso 18 17 93 1010 10 S/SE 16.7
Oggi h: 00:20 sereno Sereno 19 17 88 1010 10 S/SO 7.4
Ieri h: 23:50 coperto_pioggia Pioggia Debole 19 18 93 1010 10 N 5.5
Ieri h: 23:20 coperto_pioggia Pioggia Debole 19 17 88 1010 10 N 5.5
Ieri h: 22:50 coperto_pioggia Pioggia 19 17 88 1011 10 SO 25.9
Ieri h: 22:20 nuvoloso_temporali Temporale con Pioggia 19 17 88 1011 10 SO 37
Ieri h: 21:50 nuvoloso_piovaschi Debole Rovescio di Pioggia Temporale nelle Vicinanze 20 17 82 1011 10 S 13
Ieri h: 21:20 poco_nuvoloso Poco Nuvoloso 21 17 77 1010 10 SO 9.3
Ieri h: 20:50 nuvoloso_piovaschi Debole Rovescio di Pioggia 21 17 77 1011 10 SO 24
Ieri h: 20:20 nuvoloso_piovaschi Debole Rovescio di Pioggia 22 18 78 1010 10 O 27.8
Ieri h: 19:50 nuvoloso_piovaschi Debole Rovescio di Pioggia 26 21 73 1010 10 S/SO 13
Ieri h: 19:20 nuvoloso_piovaschi Debole Rovescio di Pioggia 27 20 65 1010 10 S 9.3
Ieri h: 18:20 poco_nuvoloso Poco Nuvoloso 27 19 61 1010 10 S/SE 13
Ieri h: 17:50 poco_nuvoloso Poco Nuvoloso 28 19 58 1010 10 S/SE 13
Ieri h: 17:20 poco_nuvoloso Poco Nuvoloso 29 19 54 1010 10 SE 18.5
Ieri h: 16:50 poco_nuvoloso Poco Nuvoloso 29 19 54 1010 10 SE 14.8
Ieri h: 16:20 poco_nuvoloso Poco Nuvoloso 29 18 51 1010 10 S/SE 18.5
Ieri h: 15:50 poco_nuvoloso Poco Nuvoloso 29 18 51 1011 10 SE 18.5
Ieri h: 15:20 poco_nuvoloso Poco Nuvoloso 29 18 51 1011 10 SE 13
Ieri h: 14:50 poco_nuvoloso Poco Nuvoloso 28 17 51 1011 10 S/SE 16.7
Ieri h: 14:20 poco_nuvoloso Poco Nuvoloso 29 17 48 1012 10 S/SE 18.5
Ieri h: 13:50 poco_nuvoloso Poco Nuvoloso 29 18 51 1012 10 S/SE 16.7
Ieri h: 13:20 poco_nuvoloso Poco Nuvoloso 28 17 51 1012 10 SE 9.3
Ieri h: 12:50 poco_nuvoloso Poco Nuvoloso 28 16 48 1012 10 S/SE 13
Ieri h: 12:20 poco_nuvoloso Poco Nuvoloso 27 16 50 1013 10 S/SE 16.7
Ieri h: 11:50 poco_nuvoloso Poco Nuvoloso 27 16 50 1013 10 S/SE 14.8
Ieri h: 11:20 poco_nuvoloso Poco Nuvoloso 27 16 50 1013 10 S/SE 13
Ieri h: 10:50 poco_nuvoloso Poco Nuvoloso 26 15 50 1013 10 S/SE 11.1
Ieri h: 10:20 poco_nuvoloso Poco Nuvoloso 26 15 50 1013 10 E/SE 11.1
Ieri h: 09:50 sereno Sereno 25 15 53 1013 10 S/SE 7.4